createdAt,value
2022-12-22T00:01:14.889Z,16.80
2022-12-22T00:06:36.701Z,16.20
2022-12-22T00:11:58.832Z,12.10
2022-12-22T00:17:22.258Z,12.50
2022-12-22T00:22:45.252Z,13.30
2022-12-22T00:28:08.204Z,11.60
2022-12-22T00:33:33.973Z,12.80
2022-12-22T00:38:56.243Z,11.40
2022-12-22T00:44:18.267Z,13.10
2022-12-22T00:49:44.102Z,12.00
2022-12-22T00:55:12.298Z,12.50
2022-12-22T01:00:37.266Z,14.20
2022-12-22T01:05:59.433Z,13.00
2022-12-22T01:11:22.064Z,13.60
2022-12-22T01:16:44.055Z,15.20
2022-12-22T01:22:05.847Z,14.00
2022-12-22T01:27:28.287Z,10.50
2022-12-22T01:32:50.064Z,14.30
2022-12-22T01:38:12.077Z,16.00
2022-12-22T01:43:45.248Z,13.80
2022-12-22T01:49:07.191Z,10.00
2022-12-22T01:54:31.319Z,15.50
2022-12-22T01:59:53.326Z,14.90
2022-12-22T02:05:22.580Z,16.00
2022-12-22T02:10:47.576Z,16.60
2022-12-22T02:16:19.247Z,17.10
2022-12-22T02:21:44.139Z,17.10
2022-12-22T02:27:13.367Z,16.70
2022-12-22T02:32:36.359Z,16.90
2022-12-22T02:38:32.029Z,12.60
2022-12-22T02:44:12.669Z,17.40
2022-12-22T02:49:41.959Z,17.10
2022-12-22T02:55:03.921Z,12.20
2022-12-22T03:00:26.853Z,14.70
2022-12-22T03:05:48.891Z,17.30
2022-12-22T03:11:10.807Z,17.70
2022-12-22T03:16:32.882Z,16.30
2022-12-22T03:21:55.039Z,15.70
2022-12-22T03:26:58.341Z,16.70
2022-12-22T03:32:04.000Z,17.60
2022-12-22T03:37:07.301Z,14.60
2022-12-22T03:42:31.788Z,16.20
2022-12-22T03:47:35.016Z,11.30
2022-12-22T03:52:40.699Z,17.40
2022-12-22T03:57:43.953Z,16.80
2022-12-22T04:02:47.435Z,15.60
2022-12-22T04:07:50.899Z,16.50
2022-12-22T04:12:55.068Z,14.40
2022-12-22T04:17:59.175Z,15.30
2022-12-22T04:23:02.819Z,14.70
2022-12-22T04:28:06.050Z,15.70
2022-12-22T04:33:09.556Z,15.20
2022-12-22T04:38:13.039Z,16.20
2022-12-22T04:43:16.310Z,16.70
2022-12-22T04:48:20.603Z,16.10
2022-12-22T04:53:25.514Z,17.00
2022-12-22T04:58:29.304Z,19.80
2022-12-22T05:03:32.882Z,17.30
2022-12-22T05:08:36.779Z,14.80
2022-12-22T05:13:40.530Z,18.20
2022-12-22T05:18:45.624Z,14.80
2022-12-22T05:23:50.388Z,14.40
2022-12-22T05:28:54.144Z,13.10
2022-12-22T05:33:57.500Z,17.90
2022-12-22T05:39:00.797Z,18.00
2022-12-22T05:44:04.328Z,17.80
2022-12-22T05:49:07.623Z,17.60
2022-12-22T05:54:11.273Z,11.70
2022-12-22T05:59:14.766Z,18.10
2022-12-22T06:04:18.259Z,17.90
2022-12-22T06:09:21.788Z,18.40
2022-12-22T06:14:25.027Z,13.90
2022-12-22T06:19:28.247Z,15.60
2022-12-22T06:24:31.564Z,19.10
2022-12-22T06:29:35.456Z,16.00
2022-12-22T06:34:38.759Z,17.10
2022-12-22T06:39:42.398Z,14.00
2022-12-22T06:44:45.830Z,16.60
2022-12-22T06:49:50.125Z,13.50
2022-12-22T06:54:53.349Z,17.50
2022-12-22T06:59:57.862Z,15.90
2022-12-22T07:05:01.613Z,15.90
2022-12-22T07:10:06.049Z,20.10
2022-12-22T07:15:10.575Z,10.60
2022-12-22T07:20:14.779Z,16.60
2022-12-22T07:25:18.344Z,17.00
2022-12-22T07:30:21.760Z,17.60
2022-12-22T07:35:25.318Z,17.10
2022-12-22T07:40:29.637Z,17.30
2022-12-22T07:45:34.393Z,17.10
2022-12-22T07:50:38.257Z,16.00
2022-12-22T07:55:41.804Z,17.70
2022-12-22T08:00:45.346Z,14.30
2022-12-22T08:05:48.777Z,16.20
2022-12-22T08:10:54.046Z,15.10
2022-12-22T08:16:04.260Z,15.00
2022-12-22T08:21:09.823Z,16.20
2022-12-22T08:26:28.911Z,15.10
2022-12-22T08:31:33.247Z,16.50
2022-12-22T08:36:40.510Z,14.50
2022-12-22T08:41:50.781Z,14.60
2022-12-22T08:46:58.372Z,15.60
2022-12-22T08:52:01.833Z,16.10
2022-12-22T08:57:06.241Z,13.50
2022-12-22T09:02:09.824Z,15.40
2022-12-22T09:07:13.232Z,15.20
2022-12-22T09:12:17.252Z,13.60
2022-12-22T09:17:21.037Z,17.00
2022-12-22T09:22:28.635Z,15.10
2022-12-22T09:27:32.468Z,18.00
2022-12-22T09:32:35.867Z,18.70
2022-12-22T09:37:39.142Z,17.70
2022-12-22T09:42:42.566Z,18.90
2022-12-22T09:47:54.367Z,20.50
2022-12-22T09:53:06.705Z,15.70
2022-12-22T09:58:31.498Z,17.30
2022-12-22T10:03:48.613Z,17.20
2022-12-22T10:08:54.446Z,12.30
2022-12-22T10:13:57.822Z,17.80
2022-12-22T10:19:16.037Z,20.60
2022-12-22T10:24:30.111Z,18.70
2022-12-22T10:29:35.003Z,17.10
2022-12-22T10:35:01.536Z,15.60
2022-12-22T10:40:21.222Z,13.30
2022-12-22T10:45:27.825Z,16.50
2022-12-22T10:50:31.753Z,18.10
2022-12-22T10:55:36.263Z,17.00
2022-12-22T11:00:39.813Z,17.30
2022-12-22T11:05:45.773Z,16.40
2022-12-22T11:11:00.833Z,18.30
2022-12-22T11:16:33.090Z,13.10
2022-12-22T11:21:51.129Z,16.40
2022-12-22T11:27:28.147Z,13.40
2022-12-22T11:32:37.579Z,16.60
2022-12-22T11:37:53.738Z,18.90
2022-12-22T11:43:11.347Z,15.00
2022-12-22T11:48:39.592Z,15.10
2022-12-22T11:54:10.705Z,14.00
2022-12-22T11:59:18.833Z,13.60
2022-12-22T12:04:46.480Z,12.70
2022-12-22T12:10:22.840Z,8.90
2022-12-22T12:15:26.023Z,12.10
2022-12-22T12:21:06.812Z,12.10
2022-12-22T12:26:41.967Z,10.20
2022-12-22T12:32:14.534Z,12.90
2022-12-22T12:37:29.305Z,11.90
2022-12-22T12:42:38.073Z,11.80
2022-12-22T12:47:41.709Z,12.30
2022-12-22T12:52:48.907Z,11.10
2022-12-22T12:57:53.169Z,14.40
2022-12-22T13:02:58.534Z,15.60
2022-12-22T13:08:12.033Z,16.50
2022-12-22T13:13:27.066Z,17.20
2022-12-22T13:18:33.626Z,18.30
2022-12-22T13:23:58.470Z,19.00
2022-12-22T13:29:20.011Z,19.30
2022-12-22T13:34:32.615Z,19.00
2022-12-22T13:39:36.325Z,19.80
2022-12-22T13:44:41.135Z,21.50
2022-12-22T13:50:07.947Z,18.00
2022-12-22T13:55:14.911Z,23.20
2022-12-22T14:00:21.287Z,12.90
2022-12-22T14:05:31.632Z,19.90
2022-12-22T14:10:43.894Z,23.30
2022-12-22T14:15:48.443Z,23.10
2022-12-22T14:20:52.793Z,24.00
2022-12-22T14:25:57.183Z,27.60
2022-12-22T14:31:03.227Z,29.20
2022-12-22T14:36:22.734Z,30.20
2022-12-22T14:41:43.366Z,29.50
2022-12-22T14:47:08.964Z,26.60
2022-12-22T14:52:28.400Z,26.60
2022-12-22T14:57:42.901Z,22.60
2022-12-22T15:02:53.692Z,23.30
2022-12-22T15:08:07.741Z,23.00
2022-12-22T15:13:25.320Z,23.10
2022-12-22T15:18:30.008Z,22.50
2022-12-22T15:23:33.423Z,21.90
2022-12-22T15:28:37.792Z,22.20
2022-12-22T15:33:41.738Z,20.00
2022-12-22T15:38:45.412Z,18.90
2022-12-22T15:43:58.195Z,18.50
2022-12-22T15:49:03.407Z,17.80
2022-12-22T15:54:11.281Z,12.10
2022-12-22T15:59:22.851Z,15.10
2022-12-22T16:04:28.731Z,16.90
2022-12-22T16:09:41.466Z,15.50
2022-12-22T16:14:57.080Z,16.00
2022-12-22T16:20:00.819Z,16.30
2022-12-22T16:25:08.496Z,17.00
2022-12-22T16:30:20.160Z,15.30
2022-12-22T16:35:26.930Z,17.30
2022-12-22T16:40:33.117Z,17.60
2022-12-22T16:45:37.554Z,14.50
2022-12-22T16:50:45.561Z,18.10
2022-12-22T16:55:48.901Z,17.80
2022-12-22T17:00:52.578Z,15.00
2022-12-22T17:05:59.565Z,16.50
2022-12-22T17:11:10.904Z,16.70
2022-12-22T17:16:23.419Z,15.50
2022-12-22T17:21:30.264Z,15.80
2022-12-22T17:26:34.892Z,14.00
2022-12-22T17:31:38.253Z,17.00
2022-12-22T17:36:41.567Z,12.00
2022-12-22T17:41:48.985Z,16.80
2022-12-22T17:46:55.706Z,15.50
2022-12-22T17:51:59.380Z,17.40
2022-12-22T17:57:04.615Z,16.00
2022-12-22T18:02:18.772Z,17.90
2022-12-22T18:07:24.796Z,16.20
2022-12-22T18:12:30.334Z,14.10
2022-12-22T18:17:36.305Z,13.80
2022-12-22T18:22:39.935Z,17.70
2022-12-22T18:27:43.441Z,18.10
2022-12-22T18:32:48.795Z,14.00
2022-12-22T18:37:54.811Z,19.10
2022-12-22T18:42:59.474Z,24.30
2022-12-22T18:48:03.248Z,19.40
2022-12-22T18:53:29.213Z,18.40
2022-12-22T18:58:32.669Z,16.70
2022-12-22T19:03:38.068Z,15.10
2022-12-22T19:08:45.796Z,15.90
2022-12-22T19:13:52.060Z,14.50
2022-12-22T19:18:57.470Z,16.20
2022-12-22T19:24:00.845Z,16.50
2022-12-22T19:29:04.749Z,19.40
2022-12-22T19:34:16.661Z,19.60
2022-12-22T19:39:19.972Z,21.40
2022-12-22T19:44:29.990Z,19.00
2022-12-22T19:49:33.272Z,20.60
2022-12-22T19:54:37.992Z,20.10
2022-12-22T19:59:45.449Z,20.40
2022-12-22T20:04:49.635Z,19.00
2022-12-22T20:09:53.390Z,15.90
2022-12-22T20:14:57.495Z,20.50
2022-12-22T20:20:00.789Z,14.40
2022-12-22T20:25:04.415Z,13.20
2022-12-22T20:30:16.777Z,16.00
2022-12-22T20:35:21.089Z,13.50
2022-12-22T20:40:30.941Z,13.00
2022-12-22T20:45:34.442Z,15.30
2022-12-22T20:50:37.766Z,15.90
2022-12-22T20:55:41.265Z,16.50
2022-12-22T21:00:45.197Z,18.10
2022-12-22T21:05:48.568Z,31.10
2022-12-22T21:10:55.113Z,25.10
2022-12-22T21:15:58.438Z,17.20
2022-12-22T21:21:01.690Z,16.00
2022-12-22T21:26:08.722Z,15.30
2022-12-22T21:31:12.284Z,18.30
2022-12-22T21:36:25.918Z,14.70
2022-12-22T21:41:47.965Z,14.50
2022-12-22T21:46:51.631Z,15.20
2022-12-22T21:51:55.770Z,15.70
2022-12-22T21:56:59.216Z,15.00
2022-12-22T22:02:02.628Z,14.90
2022-12-22T22:07:06.164Z,14.40
2022-12-22T22:12:29.135Z,13.70
2022-12-22T22:17:32.588Z,12.70
2022-12-22T22:22:36.114Z,11.90
2022-12-22T22:27:44.332Z,10.30
2022-12-22T22:32:51.632Z,17.60
2022-12-22T22:37:56.294Z,15.80
2022-12-22T22:42:59.670Z,12.70
2022-12-22T22:48:09.547Z,14.40
2022-12-22T22:53:14.149Z,14.70
2022-12-22T22:58:17.388Z,13.00
2022-12-22T23:03:20.853Z,15.30
2022-12-22T23:08:24.249Z,15.90
2022-12-22T23:13:27.665Z,16.40
2022-12-22T23:18:32.811Z,15.70
2022-12-22T23:23:36.692Z,15.10
2022-12-22T23:28:40.118Z,14.90
2022-12-22T23:33:44.019Z,15.20
2022-12-22T23:38:47.420Z,15.00
2022-12-22T23:43:51.303Z,14.90
2022-12-22T23:48:57.164Z,15.30
2022-12-22T23:54:01.879Z,19.70
2022-12-22T23:59:05.165Z,16.10
